KRBL/RBL METAR and TAF weather

Enter ICAO airport designator
Station Type Date Time Source
KRBL METAR 2019/08/25 05:54 UTC NOAA

KRBL 250554Z AUTO 30004KT 10SM CLR 26/17 A2988 RMK AO2 SLP113 T02610172 10367 20261 51016


Station Type Date Time Source
KRBL Decoded METAR 2019/08/25 05:54 UTC NOAA

Station name not available
Aug 25, 2019 - 01:54 AM EDT / 2019.08.25 0554 UTC
Wind: from the WNW (300 degrees) at 5 MPH (4 KT):0
Visibility: 10 mile(s):0
Sky conditions: clear
Temperature: 79.0 F (26.1 C)
Dew Point: 63.0 F (17.2 C)
Relative Humidity: 58%
Pressure (altimeter): 29.88 in. Hg (1011 hPa)
Pressure tendency: 0.05 inches (1.6 hPa) higher than three hours ago
ob: KRBL 250554Z AUTO 30004KT 10SM CLR 26/17 A2988 RMK AO2 SLP113 T02610172 10367 20261 51016
cycle: 6

Station Type Date Time Source
KRBL TAF 2019/08/25 06:27 UTC NOAA

TAF KRBL 250525Z 2506/2606 VRB03KT P6SM SKC
FM252100 16009KT P6SM SKC

Example: see airport list